Albuquerque, NM (87114)

4:27 AM MDT on July 23, 2016 (GMT -0600)
Vista Casitas | | Change Station

Elev 5466 ft 35.19 °N, 106.74 °W | Updated 2 minutes ago

Scattered Clouds
Scattered Clouds
72.4 °F
Feels Like 77 °F
N
2.0
Wind Variable Wind from South
Gusts 4.0 mph

Today
High -- | Low -- °F
--% Chance of Precip.
Yesterday
High -- | Low -- °F
Precip. -- in
Pressure 29.86 in
Visibility 10.0 miles
Clouds Few 13000 ft
Few 17000 ft
Scattered Clouds 30000 ft
Heat Index 77 °F
Dew Point 50 °F
Humidity 46%
Rainfall 0.00 in
Snow Depth Not available.
6:09 AM 8:16 PM
Waning Gibbous, 86% visible
METAR KABQ 230952Z 29003KT 10SM FEW130 FEW170 SCT300 25/11 A3017 RMK AO2 SLP109 T02500106
Pressure 29.86 in
Visibility 10.0 miles
Clouds Few 13000 ft
Few 17000 ft
Scattered Clouds 30000 ft
Heat Index 77 °F
Dew Point 50 °F
Humidity 46%
Rainfall 0.00 in
Snow Depth Not available.
6:09 AM 8:16 PM
Waning Gibbous, 86% visible
METAR KABQ 230952Z 29003KT 10SM FEW130 FEW170 SCT300 25/11 A3017 RMK AO2 SLP109 T02500106

10-Day Weather Forecast

Almanac

Astronomy

Jul. 23, 2016 Rise Set
Actual Time
Civil Twilight
Nautical Twilight
Astronomical Twilight
Moon
Length of Visible Light
Length of Day
Tomorrow will be .
, % of the Moon is Illuminated

Today's Extremes

State Highs State Lows

Community

WunderPhotos

Upload Photos

1,926,791 photos uploaded!

WunderBlog® & News

Nearby

Air Quality

  Air Quality AQ Index Pollutant
Not available.

Snow Depth

Station Depth Elevation

Earthquake Activity

City Distance Mag. Time & Date
Minimum magnitude displayed is 2.5.

Coastal Water Temperatures

Place Temperature

Stations

Nearby Weather Stations

Station Location Temp. Windchill Dew Point Humidity Wind Precip. Elev Updated Type
                   

Watches & Warnings

There are currently no watches in effect.